createdAt,value
2017-12-11T00:00:29.308Z,922.76
2017-12-11T00:01:29.299Z,922.81
2017-12-11T00:02:29.274Z,922.67
2017-12-11T00:03:29.258Z,922.93
2017-12-11T00:04:29.240Z,923.1
2017-12-11T00:05:29.223Z,923.14
2017-12-11T00:06:29.208Z,923.03
2017-12-11T00:07:29.192Z,922.87
2017-12-11T00:08:29.178Z,923.01
2017-12-11T00:09:29.158Z,923.02
2017-12-11T00:10:29.141Z,923.07
2017-12-11T00:11:29.125Z,923.11
2017-12-11T00:12:29.110Z,923.19
2017-12-11T00:13:29.091Z,923.23
2017-12-11T00:14:29.076Z,923.29
2017-12-11T00:15:29.071Z,923.26
2017-12-11T00:16:29.042Z,923.12
2017-12-11T00:17:29.039Z,923.01
2017-12-11T00:18:29.010Z,923.03
2017-12-11T00:19:28.992Z,923.12
2017-12-11T00:20:28.997Z,923.12
2017-12-11T00:21:28.960Z,923.2
2017-12-11T00:22:28.943Z,923.19
2017-12-11T00:23:28.927Z,923.26
2017-12-11T00:24:28.910Z,923.27
2017-12-11T00:25:28.894Z,923.27
2017-12-11T00:26:28.877Z,923.22
2017-12-11T00:27:28.861Z,923.23
2017-12-11T00:28:28.844Z,923.13
2017-12-11T00:29:28.828Z,923.09
2017-12-11T00:30:28.812Z,923.02
2017-12-11T00:31:28.795Z,923.17
2017-12-11T00:32:28.779Z,922.98
2017-12-11T00:33:28.765Z,923.24
2017-12-11T00:34:28.746Z,923.09
2017-12-11T00:35:28.730Z,923.15
2017-12-11T00:36:28.714Z,923.29
2017-12-11T00:37:28.697Z,923.21
2017-12-11T00:38:28.679Z,923.24
2017-12-11T00:39:28.668Z,923.19
2017-12-11T00:40:28.648Z,923.23
2017-12-11T00:41:28.632Z,923.13
2017-12-11T00:42:28.613Z,923.11
2017-12-11T00:43:28.599Z,923.22
2017-12-11T00:44:28.582Z,923.27
2017-12-11T00:45:28.570Z,923.25
2017-12-11T00:46:28.549Z,923.22
2017-12-11T00:47:28.539Z,923.3
2017-12-11T00:48:28.521Z,923.27
2017-12-11T00:49:28.520Z,923.27
2017-12-11T00:50:28.484Z,923.21
2017-12-11T00:51:28.468Z,923.16
2017-12-11T00:52:28.455Z,923.15
2017-12-11T00:53:28.453Z,923.23
2017-12-11T00:54:28.419Z,923.28
2017-12-11T00:55:28.404Z,923.3
2017-12-11T00:56:28.388Z,923.26
2017-12-11T00:57:28.371Z,923.24
2017-12-11T00:58:28.355Z,923.31
2017-12-11T00:59:28.338Z,923.35
2017-12-11T01:00:28.322Z,923.34
2017-12-11T01:01:28.305Z,923.43
2017-12-11T01:02:28.290Z,923.32
2017-12-11T01:03:28.292Z,923.36
2017-12-11T01:04:28.259Z,923.4
2017-12-11T01:05:28.242Z,923.33
2017-12-11T01:06:28.225Z,923.52
2017-12-11T01:07:28.210Z,923.57
2017-12-11T01:08:28.193Z,923.47
2017-12-11T01:09:28.177Z,923.54
2017-12-11T01:10:28.160Z,923.54
2017-12-11T01:11:28.144Z,923.57
2017-12-11T01:12:28.128Z,923.55
2017-12-11T01:13:28.112Z,923.46
2017-12-11T01:14:28.097Z,923.57
2017-12-11T01:15:28.080Z,923.58
2017-12-11T01:16:28.064Z,923.72
2017-12-11T01:17:28.047Z,923.73
2017-12-11T01:18:28.031Z,923.71
2017-12-11T01:19:28.016Z,923.65
2017-12-11T01:20:27.999Z,923.73
2017-12-11T01:21:27.984Z,923.7
2017-12-11T01:22:27.967Z,923.83
2017-12-11T01:23:27.952Z,923.94
2017-12-11T01:24:27.935Z,923.89
2017-12-11T01:25:27.919Z,923.9
2017-12-11T01:26:27.904Z,923.76
2017-12-11T01:27:27.888Z,923.82
2017-12-11T01:28:27.872Z,923.89
2017-12-11T01:29:27.854Z,924
2017-12-11T01:30:27.841Z,924.06
2017-12-11T01:31:27.823Z,924.09
2017-12-11T01:32:27.809Z,924.18
2017-12-11T01:33:27.791Z,924.19
2017-12-11T01:34:27.780Z,924.23
2017-12-11T01:35:27.758Z,924.25
2017-12-11T01:36:27.743Z,924.25
2017-12-11T01:37:27.727Z,924.25
2017-12-11T01:38:27.711Z,924.29
2017-12-11T01:39:27.695Z,924.26
2017-12-11T01:40:27.687Z,924.31
2017-12-11T01:41:27.663Z,924.36
2017-12-11T01:42:27.672Z,924.31
2017-12-11T01:43:27.637Z,924.24
2017-12-11T01:44:27.663Z,924.18
2017-12-11T01:45:27.642Z,924.26
2017-12-11T01:46:27.582Z,924.28
2017-12-11T01:47:27.570Z,924.28
2017-12-11T01:48:27.550Z,924.36
2017-12-11T01:49:27.557Z,924.23
2017-12-11T01:50:27.518Z,924.33
2017-12-11T01:51:27.501Z,924.29
2017-12-11T01:52:27.486Z,924.34
2017-12-11T01:53:27.486Z,924.37
2017-12-11T01:54:27.456Z,924.42
2017-12-11T01:55:27.438Z,924.38
2017-12-11T01:56:27.429Z,924.34
2017-12-11T01:57:27.407Z,924.41
2017-12-11T01:58:27.391Z,924.37
2017-12-11T01:59:27.379Z,924.39
2017-12-11T02:00:27.359Z,924.37
2017-12-11T02:01:27.344Z,924.3
2017-12-11T02:02:27.326Z,924.38
2017-12-11T02:03:27.311Z,924.46
2017-12-11T02:04:27.296Z,924.37
2017-12-11T02:05:27.280Z,924.46
2017-12-11T02:06:27.284Z,924.4
2017-12-11T02:07:27.247Z,924.38
2017-12-11T02:08:27.256Z,924.36
2017-12-11T02:09:27.215Z,924.38
2017-12-11T02:10:27.200Z,924.42
2017-12-11T02:11:27.182Z,924.32
2017-12-11T02:12:27.169Z,924.37
2017-12-11T02:13:27.152Z,924.39
2017-12-11T02:14:27.138Z,924.42
2017-12-11T02:15:27.121Z,924.35
2017-12-11T02:16:27.109Z,924.47
2017-12-11T02:17:27.090Z,924.38
2017-12-11T02:18:27.073Z,924.34
2017-12-11T02:19:27.057Z,924.3
2017-12-11T02:20:27.042Z,924.3
2017-12-11T02:21:27.024Z,924.39
2017-12-11T02:22:27.009Z,924.32
2017-12-11T02:23:26.993Z,924.31
2017-12-11T02:24:26.977Z,924.33
2017-12-11T02:25:26.960Z,924.31
2017-12-11T02:26:26.947Z,924.32
2017-12-11T02:27:26.931Z,924.31
2017-12-11T02:28:26.914Z,924.31
2017-12-11T02:29:26.897Z,924.29
2017-12-11T02:30:26.882Z,924.27
2017-12-11T02:31:26.905Z,924.36
2017-12-11T02:32:26.849Z,924.24
2017-12-11T02:33:26.834Z,924.27
2017-12-11T02:34:26.819Z,924.25
2017-12-11T02:35:26.802Z,924.1
2017-12-11T02:36:26.793Z,924.04
2017-12-11T02:37:26.780Z,923.92
2017-12-11T02:38:26.757Z,924.02
2017-12-11T02:39:26.741Z,924.01
2017-12-11T02:40:26.747Z,924.03
2017-12-11T02:41:26.707Z,924
2017-12-11T02:42:26.691Z,924.01
2017-12-11T02:43:26.677Z,923.94
2017-12-11T02:44:26.660Z,923.93
2017-12-11T02:45:26.706Z,923.85
2017-12-11T02:46:26.628Z,923.79
2017-12-11T02:47:26.613Z,923.77
2017-12-11T02:48:26.597Z,923.77
2017-12-11T02:49:26.582Z,923.78
2017-12-11T02:50:26.584Z,923.66
2017-12-11T02:51:26.549Z,923.72
2017-12-11T02:52:26.539Z,923.78
2017-12-11T02:53:26.516Z,923.75
2017-12-11T02:54:26.502Z,923.75
2017-12-11T02:55:26.485Z,923.79
2017-12-11T02:56:26.470Z,923.8
2017-12-11T02:57:26.456Z,923.68
2017-12-11T02:58:26.438Z,923.73
2017-12-11T02:59:26.424Z,923.68
2017-12-11T03:00:26.407Z,923.63
2017-12-11T03:01:26.392Z,923.62
2017-12-11T03:02:26.375Z,923.76
2017-12-11T03:03:26.360Z,923.78
2017-12-11T03:04:26.361Z,923.81
2017-12-11T03:05:26.328Z,923.83
2017-12-11T03:06:26.314Z,923.81
2017-12-11T03:07:26.296Z,923.77
2017-12-11T03:08:26.281Z,923.74
2017-12-11T03:09:26.267Z,923.7
2017-12-11T03:10:26.251Z,923.87
2017-12-11T03:11:26.234Z,923.86
2017-12-11T03:12:26.218Z,923.92
2017-12-11T03:13:26.222Z,923.97
2017-12-11T03:14:26.187Z,924.02
2017-12-11T03:15:26.170Z,923.98
2017-12-11T03:16:26.157Z,923.99
2017-12-11T03:17:26.142Z,923.97
2017-12-11T03:18:26.126Z,923.98
2017-12-11T03:19:26.109Z,924.02
2017-12-11T03:20:26.128Z,924.02
2017-12-11T03:21:26.077Z,924.07
2017-12-11T03:22:26.061Z,923.95
2017-12-11T03:23:26.044Z,924
2017-12-11T03:24:26.030Z,924.03
2017-12-11T03:25:26.019Z,923.97
2017-12-11T03:26:25.998Z,924
2017-12-11T03:27:25.999Z,924
2017-12-11T03:28:25.966Z,924.03
2017-12-11T03:29:25.950Z,923.96
2017-12-11T03:30:25.935Z,923.99
2017-12-11T03:31:25.962Z,924.02
2017-12-11T03:32:25.904Z,924.07
2017-12-11T03:33:25.889Z,924.08
2017-12-11T03:34:25.871Z,924.09
2017-12-11T03:35:25.855Z,924.1
2017-12-11T03:36:25.854Z,924.15
2017-12-11T03:37:25.822Z,924.08
2017-12-11T03:38:25.808Z,924.15
2017-12-11T03:39:25.791Z,924.2
2017-12-11T03:40:25.775Z,924.22
2017-12-11T03:41:25.759Z,924.32
2017-12-11T03:42:25.791Z,924.39
2017-12-11T03:43:25.728Z,924.45
2017-12-11T03:44:25.711Z,924.41
2017-12-11T03:45:25.694Z,924.46
2017-12-11T03:46:25.687Z,924.43
2017-12-11T03:47:25.664Z,924.43
2017-12-11T03:48:25.647Z,924.44
2017-12-11T03:49:25.652Z,924.53
2017-12-11T03:50:25.615Z,924.57
2017-12-11T03:51:25.600Z,924.65
2017-12-11T03:52:25.582Z,924.67
2017-12-11T03:53:25.566Z,924.67
2017-12-11T03:54:25.551Z,924.63
2017-12-11T03:55:25.554Z,924.64
2017-12-11T03:56:25.527Z,924.63
2017-12-11T03:57:25.503Z,924.76
2017-12-11T03:58:25.491Z,924.87
2017-12-11T03:59:25.471Z,925.05
2017-12-11T04:00:25.456Z,925.06
2017-12-11T04:01:25.440Z,925.12
2017-12-11T04:02:25.426Z,925.05
2017-12-11T04:03:25.407Z,925.03
2017-12-11T04:04:25.390Z,925.01
2017-12-11T04:05:25.375Z,925
2017-12-11T04:06:25.358Z,924.97
2017-12-11T04:07:25.344Z,924.88
2017-12-11T04:08:25.327Z,924.97
2017-12-11T04:09:25.313Z,924.87
2017-12-11T04:10:25.312Z,924.93
2017-12-11T04:11:25.279Z,925
2017-12-11T04:12:25.262Z,924.95
2017-12-11T04:13:25.248Z,924.92
2017-12-11T04:14:25.232Z,924.92
2017-12-11T04:15:25.222Z,924.93
2017-12-11T04:16:25.201Z,924.92
2017-12-11T04:17:25.183Z,924.98
2017-12-11T04:18:25.180Z,925.01
2017-12-11T04:19:25.151Z,925.03
2017-12-11T04:20:25.135Z,925.04
2017-12-11T04:21:25.119Z,924.97
2017-12-11T04:22:25.104Z,924.97
2017-12-11T04:23:25.087Z,925.03
2017-12-11T04:24:25.073Z,925.1
2017-12-11T04:25:25.056Z,925.15
2017-12-11T04:26:25.040Z,925.15
2017-12-11T04:27:25.024Z,925.07
2017-12-11T04:28:25.007Z,925.18
2017-12-11T04:29:24.995Z,925.2
2017-12-11T04:30:24.977Z,925.25
2017-12-11T04:31:24.961Z,925.26
2017-12-11T04:32:24.963Z,925.21
2017-12-11T04:33:24.930Z,925.37
2017-12-11T04:34:24.911Z,925.35
2017-12-11T04:35:24.894Z,925.33
2017-12-11T04:36:24.879Z,925.34
2017-12-11T04:37:24.864Z,925.39
2017-12-11T04:38:24.848Z,925.43
2017-12-11T04:39:24.832Z,925.45
2017-12-11T04:40:24.829Z,925.48
2017-12-11T04:41:24.801Z,925.51
2017-12-11T04:42:24.784Z,925.57
2017-12-11T04:43:24.768Z,925.56
2017-12-11T04:44:24.754Z,925.64
2017-12-11T04:45:24.743Z,925.64
2017-12-11T04:46:24.721Z,925.68
2017-12-11T04:47:24.704Z,925.67
2017-12-11T04:48:24.689Z,925.73
2017-12-11T04:49:24.672Z,925.69
2017-12-11T04:50:24.657Z,925.67
2017-12-11T04:51:24.640Z,925.7
2017-12-11T04:52:24.625Z,925.71
2017-12-11T04:53:24.610Z,925.78
2017-12-11T04:54:24.595Z,925.78
2017-12-11T04:55:24.578Z,925.78
2017-12-11T04:56:24.583Z,925.79
2017-12-11T04:57:24.546Z,925.75
2017-12-11T04:58:24.531Z,925.75
2017-12-11T04:59:24.515Z,925.73
2017-12-11T05:00:24.499Z,925.73
2017-12-11T05:01:24.483Z,925.79
2017-12-11T05:02:24.470Z,925.7
2017-12-11T05:03:24.451Z,925.78
2017-12-11T05:04:24.435Z,925.79
2017-12-11T05:05:24.418Z,925.75
2017-12-11T05:06:24.439Z,925.77
2017-12-11T05:07:24.388Z,925.73
2017-12-11T05:08:24.373Z,925.82
2017-12-11T05:09:24.357Z,925.87
2017-12-11T05:10:24.356Z,925.89
2017-12-11T05:11:24.326Z,925.9
2017-12-11T05:12:24.308Z,925.9
2017-12-11T05:13:24.319Z,925.89
2017-12-11T05:14:24.289Z,925.89
2017-12-11T05:15:24.262Z,925.85
2017-12-11T05:16:24.247Z,925.88
2017-12-11T05:17:24.231Z,925.89
2017-12-11T05:18:24.217Z,925.85
2017-12-11T05:19:24.199Z,925.88
2017-12-11T05:20:24.184Z,925.86
2017-12-11T05:21:24.169Z,925.85
2017-12-11T05:22:24.166Z,925.86
2017-12-11T05:23:24.137Z,925.82
2017-12-11T05:24:24.135Z,925.8
2017-12-11T05:25:24.104Z,925.81
2017-12-11T05:26:24.090Z,925.82
2017-12-11T05:27:24.080Z,925.81
2017-12-11T05:28:24.067Z,925.82
2017-12-11T05:29:24.045Z,925.8
2017-12-11T05:30:24.026Z,925.8
2017-12-11T05:31:24.015Z,925.78
2017-12-11T05:32:23.997Z,925.8
2017-12-11T05:33:23.981Z,925.8
2017-12-11T05:34:23.965Z,925.84
2017-12-11T05:35:23.948Z,925.84
2017-12-11T05:36:23.933Z,925.78
2017-12-11T05:37:23.916Z,925.82
2017-12-11T05:38:23.901Z,925.79
2017-12-11T05:39:23.885Z,925.77
2017-12-11T05:40:23.870Z,925.86
2017-12-11T05:41:23.871Z,925.79
2017-12-11T05:42:23.838Z,925.79
2017-12-11T05:43:23.840Z,925.8
2017-12-11T05:44:23.808Z,925.73
2017-12-11T05:45:23.791Z,925.7
2017-12-11T05:46:23.777Z,925.68
2017-12-11T05:47:23.764Z,925.67
2017-12-11T05:48:23.747Z,925.62
2017-12-11T05:49:23.728Z,925.63
2017-12-11T05:50:23.713Z,925.6
2017-12-11T05:51:23.699Z,925.59
2017-12-11T05:52:23.681Z,925.51
2017-12-11T05:53:23.666Z,925.47
2017-12-11T05:54:23.650Z,925.44
2017-12-11T05:55:23.650Z,925.39
2017-12-11T05:56:23.620Z,925.39
2017-12-11T05:57:23.608Z,925.37
2017-12-11T05:58:23.589Z,925.36
2017-12-11T05:59:23.573Z,925.31
2017-12-11T06:00:23.556Z,925.32
2017-12-11T06:01:23.549Z,925.34
2017-12-11T06:02:23.544Z,925.3
2017-12-11T06:03:23.512Z,925.26
2017-12-11T06:04:23.494Z,925.29
2017-12-11T06:05:23.478Z,925.3
2017-12-11T06:06:23.477Z,925.29
2017-12-11T06:07:23.445Z,925.35
2017-12-11T06:08:23.430Z,925.33
2017-12-11T06:09:23.416Z,925.35
2017-12-11T06:10:23.423Z,925.45
2017-12-11T06:11:23.385Z,925.54
2017-12-11T06:12:23.369Z,925.56
2017-12-11T06:13:23.353Z,925.58
2017-12-11T06:14:23.337Z,925.55
2017-12-11T06:15:23.323Z,925.54
2017-12-11T06:16:23.304Z,925.53
2017-12-11T06:17:23.292Z,925.55
2017-12-11T06:18:23.274Z,925.59
2017-12-11T06:19:23.259Z,925.61
2017-12-11T06:20:23.243Z,925.58
2017-12-11T06:21:23.227Z,925.56
2017-12-11T06:22:23.211Z,925.58
2017-12-11T06:23:23.195Z,925.61
2017-12-11T06:24:23.180Z,925.68
2017-12-11T06:25:23.171Z,925.68
2017-12-11T06:26:23.152Z,925.69
2017-12-11T06:27:23.132Z,925.72
2017-12-11T06:28:23.115Z,925.74
2017-12-11T06:29:23.099Z,925.77
2017-12-11T06:30:23.084Z,925.73
2017-12-11T06:31:23.069Z,925.71
2017-12-11T06:32:23.052Z,925.68
2017-12-11T06:33:23.038Z,925.71
2017-12-11T06:34:23.027Z,925.71
2017-12-11T06:35:23.006Z,925.69
2017-12-11T06:36:22.990Z,925.68
2017-12-11T06:37:22.973Z,925.61
2017-12-11T06:38:22.958Z,925.61
2017-12-11T06:39:22.949Z,925.61
2017-12-11T06:40:22.925Z,925.63
2017-12-11T06:41:22.916Z,925.65
2017-12-11T06:42:22.895Z,925.61
2017-12-11T06:43:22.877Z,925.54
2017-12-11T06:44:22.863Z,925.57
2017-12-11T06:45:22.846Z,925.57
2017-12-11T06:46:22.831Z,925.58
2017-12-11T06:47:22.815Z,925.56
2017-12-11T06:48:22.800Z,925.53
2017-12-11T06:49:22.792Z,925.46
2017-12-11T06:50:22.767Z,925.37
2017-12-11T06:51:22.750Z,925.34
2017-12-11T06:52:22.736Z,925.32
2017-12-11T06:53:22.722Z,925.31
2017-12-11T06:54:22.703Z,925.27
2017-12-11T06:55:22.687Z,925.3
2017-12-11T06:56:22.671Z,925.23
2017-12-11T06:57:22.655Z,925.23
2017-12-11T06:58:22.638Z,925.06
2017-12-11T06:59:22.623Z,925.01
2017-12-11T07:00:22.608Z,924.95
2017-12-11T07:01:22.592Z,925.01
2017-12-11T07:02:22.575Z,925.02
2017-12-11T07:03:22.559Z,925.07
2017-12-11T07:04:22.544Z,925.14
2017-12-11T07:05:22.526Z,925.2
2017-12-11T07:06:22.511Z,925.17
2017-12-11T07:07:22.496Z,925.21
2017-12-11T07:08:22.479Z,925.22
2017-12-11T07:09:22.463Z,925.24
2017-12-11T07:10:22.447Z,925.31
2017-12-11T07:11:22.430Z,925.37
2017-12-11T07:12:22.415Z,925.33
2017-12-11T07:13:22.399Z,925.4
2017-12-11T07:14:22.402Z,925.35
2017-12-11T07:15:22.365Z,925.37
2017-12-11T07:16:22.350Z,925.44
2017-12-11T07:17:22.333Z,925.41
2017-12-11T07:18:22.318Z,925.41
2017-12-11T07:19:22.301Z,925.48
2017-12-11T07:20:22.284Z,925.58
2017-12-11T07:21:22.290Z,925.55
2017-12-11T07:22:22.252Z,925.58
2017-12-11T07:23:22.236Z,925.6
2017-12-11T07:24:22.220Z,925.66
2017-12-11T07:25:22.204Z,925.63
2017-12-11T07:26:22.187Z,925.64
2017-12-11T07:27:22.171Z,925.57
2017-12-11T07:28:22.153Z,925.6
2017-12-11T07:29:22.139Z,925.64
2017-12-11T07:30:22.131Z,925.62
2017-12-11T07:31:22.105Z,925.59
2017-12-11T07:32:22.090Z,925.54
2017-12-11T07:33:22.075Z,925.56
2017-12-11T07:34:22.058Z,925.5
2017-12-11T07:35:22.041Z,925.45
2017-12-11T07:36:22.025Z,925.46
2017-12-11T07:37:22.010Z,925.4
2017-12-11T07:38:21.992Z,925.42
2017-12-11T07:39:21.976Z,925.43
2017-12-11T07:40:21.960Z,925.44
2017-12-11T07:41:21.944Z,925.43
2017-12-11T07:42:21.927Z,925.42
2017-12-11T07:43:21.912Z,925.4
2017-12-11T07:44:21.917Z,925.38
2017-12-11T07:45:21.879Z,925.4
2017-12-11T07:46:21.864Z,925.39
2017-12-11T07:47:21.855Z,925.4
2017-12-11T07:48:21.833Z,925.34
2017-12-11T07:49:21.816Z,925.32
2017-12-11T07:50:21.800Z,925.36
2017-12-11T07:51:21.785Z,925.31
2017-12-11T07:52:21.769Z,925.28
2017-12-11T07:53:21.759Z,925.3
2017-12-11T07:54:21.736Z,925.35
2017-12-11T07:55:21.719Z,925.3
2017-12-11T07:56:21.702Z,925.37
2017-12-11T07:57:21.689Z,925.38
2017-12-11T07:58:21.687Z,925.47
2017-12-11T07:59:21.663Z,925.48
2017-12-11T08:00:21.639Z,925.47
2017-12-11T08:01:21.624Z,925.52
2017-12-11T08:02:21.608Z,925.42
2017-12-11T08:03:21.598Z,925.47
2017-12-11T08:04:21.575Z,925.49
2017-12-11T08:05:21.560Z,925.47
2017-12-11T08:06:21.544Z,925.51
2017-12-11T08:07:21.527Z,925.47
2017-12-11T08:08:21.512Z,925.47
2017-12-11T08:09:21.496Z,925.5
2017-12-11T08:10:21.480Z,925.49
2017-12-11T08:11:21.464Z,925.57
2017-12-11T08:12:21.447Z,925.55
2017-12-11T08:13:21.433Z,925.51
2017-12-11T08:14:21.417Z,925.48
2017-12-11T08:15:21.400Z,925.49
2017-12-11T08:16:21.386Z,925.48
2017-12-11T08:17:21.368Z,925.54
2017-12-11T08:18:21.352Z,925.51
2017-12-11T08:19:21.335Z,925.51
2017-12-11T08:20:21.321Z,925.5
2017-12-11T08:21:21.306Z,925.49
2017-12-11T08:22:21.289Z,925.48
2017-12-11T08:23:21.273Z,925.47
2017-12-11T08:24:21.257Z,925.49
2017-12-11T08:25:21.242Z,925.47
2017-12-11T08:26:21.225Z,925.45
2017-12-11T08:27:21.210Z,925.48
2017-12-11T08:28:21.194Z,925.43
2017-12-11T08:29:21.176Z,925.45
2017-12-11T08:30:21.162Z,925.42
2017-12-11T08:31:21.146Z,925.43
2017-12-11T08:32:21.129Z,925.39
2017-12-11T08:33:21.113Z,925.38
2017-12-11T08:34:21.097Z,925.46
2017-12-11T08:35:21.081Z,925.48
2017-12-11T08:36:21.066Z,925.48
2017-12-11T08:37:21.049Z,925.55
2017-12-11T08:38:21.034Z,925.49
2017-12-11T08:39:21.018Z,925.44
2017-12-11T08:40:21.001Z,925.44
2017-12-11T08:41:20.987Z,925.42
2017-12-11T08:42:20.974Z,925.49
2017-12-11T08:43:20.956Z,925.56
2017-12-11T08:44:20.940Z,925.53
2017-12-11T08:45:20.924Z,925.56
2017-12-11T08:46:20.907Z,925.47
2017-12-11T08:47:20.892Z,925.4
2017-12-11T08:48:20.876Z,925.46
2017-12-11T08:49:20.881Z,925.44
2017-12-11T08:50:20.844Z,925.48
2017-12-11T08:51:20.829Z,925.45
2017-12-11T08:52:20.814Z,925.42
2017-12-11T08:53:20.798Z,925.35
2017-12-11T08:54:20.782Z,925.4
2017-12-11T08:55:20.766Z,925.39
2017-12-11T08:56:20.749Z,925.32
2017-12-11T08:57:20.736Z,925.25
2017-12-11T08:58:20.720Z,925.25
2017-12-11T08:59:20.704Z,925.18
2017-12-11T09:00:20.688Z,925.13
2017-12-11T09:01:20.671Z,925.14
2017-12-11T09:02:20.657Z,925.14
2017-12-11T09:03:20.646Z,925.09
2017-12-11T09:04:20.626Z,925.09
2017-12-11T09:05:20.610Z,925.11
2017-12-11T09:06:20.601Z,925.09
2017-12-11T09:07:20.578Z,925.1
2017-12-11T09:08:20.563Z,925.14
2017-12-11T09:09:20.548Z,925.04
2017-12-11T09:10:20.532Z,924.94
2017-12-11T09:11:20.515Z,924.9
2017-12-11T09:12:20.501Z,924.9
2017-12-11T09:13:20.484Z,924.87
2017-12-11T09:14:20.469Z,924.86
2017-12-11T09:15:20.510Z,924.8
2017-12-11T09:16:20.440Z,924.75
2017-12-11T09:17:20.424Z,924.75
2017-12-11T09:18:20.408Z,924.74
2017-12-11T09:19:20.393Z,924.75
2017-12-11T09:20:20.377Z,924.67
2017-12-11T09:21:20.362Z,924.67
2017-12-11T09:22:20.349Z,924.66
2017-12-11T09:23:20.331Z,924.69
2017-12-11T09:24:20.315Z,924.68
2017-12-11T09:25:20.300Z,924.66
2017-12-11T09:26:20.287Z,924.63
2017-12-11T09:27:20.288Z,924.62
2017-12-11T09:28:20.256Z,924.62
2017-12-11T09:29:20.239Z,924.64
2017-12-11T09:30:20.223Z,924.6
2017-12-11T09:31:20.207Z,924.55
2017-12-11T09:32:20.193Z,924.55
2017-12-11T09:33:20.178Z,924.54
2017-12-11T09:34:20.164Z,924.5
2017-12-11T09:35:20.146Z,924.5
2017-12-11T09:36:20.131Z,924.46
2017-12-11T09:37:20.118Z,924.47
2017-12-11T09:38:20.101Z,924.45
2017-12-11T09:39:20.086Z,924.43
2017-12-11T09:40:20.073Z,924.44
2017-12-11T09:41:20.055Z,924.44
2017-12-11T09:42:20.041Z,924.46
2017-12-11T09:43:20.025Z,924.41
2017-12-11T09:44:20.009Z,924.33
2017-12-11T09:45:19.996Z,924.27
2017-12-11T09:46:19.979Z,924.25
2017-12-11T09:47:19.964Z,924.2
2017-12-11T09:48:19.950Z,924.11
2017-12-11T09:49:19.934Z,924.15
2017-12-11T09:50:19.920Z,924.18
2017-12-11T09:51:19.905Z,924.2
2017-12-11T09:52:19.889Z,924.25
2017-12-11T09:53:19.873Z,924.21
2017-12-11T09:54:19.858Z,924.24
2017-12-11T09:55:19.848Z,924.31
2017-12-11T09:56:19.830Z,924.31
2017-12-11T09:57:19.814Z,924.35
2017-12-11T09:58:19.800Z,924.38
2017-12-11T09:59:19.785Z,924.35
2017-12-11T10:00:19.769Z,924.35
2017-12-11T10:01:19.754Z,924.38
2017-12-11T10:02:19.739Z,924.42
2017-12-11T10:03:19.729Z,924.4
2017-12-11T10:04:19.710Z,924.39
2017-12-11T10:05:19.695Z,924.4
2017-12-11T10:06:19.700Z,924.42
2017-12-11T10:07:19.665Z,924.44
2017-12-11T10:08:19.651Z,924.45
2017-12-11T10:09:19.634Z,924.43
2017-12-11T10:10:19.620Z,924.44
2017-12-11T10:11:19.605Z,924.38
2017-12-11T10:12:19.593Z,924.51
2017-12-11T10:13:19.576Z,924.49
2017-12-11T10:14:19.561Z,924.5
2017-12-11T10:15:19.544Z,924.43
2017-12-11T10:16:19.534Z,924.44
2017-12-11T10:17:19.516Z,924.47
2017-12-11T10:18:19.501Z,924.51
2017-12-11T10:19:19.486Z,924.56
2017-12-11T10:20:19.471Z,924.52
2017-12-11T10:21:19.456Z,924.49
2017-12-11T10:22:19.442Z,924.46
2017-12-11T10:23:19.425Z,924.42
2017-12-11T10:24:19.412Z,924.38
2017-12-11T10:25:19.396Z,924.36
2017-12-11T10:26:19.380Z,924.34
2017-12-11T10:27:19.366Z,924.32
2017-12-11T10:28:19.352Z,924.27
2017-12-11T10:29:19.337Z,924.24
2017-12-11T10:30:19.321Z,924.16
2017-12-11T10:31:19.307Z,924.19
2017-12-11T10:32:19.292Z,924.16
2017-12-11T10:33:19.279Z,924.04
2017-12-11T10:34:19.262Z,924.18
2017-12-11T10:35:19.251Z,924.12
2017-12-11T10:36:19.232Z,924.16
2017-12-11T10:37:19.218Z,924.07
2017-12-11T10:38:19.203Z,924.1
2017-12-11T10:39:19.189Z,924.12
2017-12-11T10:40:19.174Z,924.14
2017-12-11T10:41:19.158Z,924.14
2017-12-11T10:42:19.143Z,924.03
2017-12-11T10:43:19.129Z,924.03
2017-12-11T10:44:19.113Z,924
2017-12-11T10:45:19.097Z,923.98
2017-12-11T10:46:19.084Z,923.9
2017-12-11T10:47:19.068Z,923.85
2017-12-11T10:48:19.054Z,923.86
2017-12-11T10:49:19.038Z,923.7
2017-12-11T10:50:19.024Z,923.82
2017-12-11T10:51:19.009Z,923.77
2017-12-11T10:52:19.005Z,923.76
2017-12-11T10:53:18.979Z,923.72
2017-12-11T10:54:18.965Z,923.69
2017-12-11T10:55:18.969Z,923.64
2017-12-11T10:56:18.936Z,923.62
2017-12-11T10:57:18.921Z,923.61
2017-12-11T10:58:18.908Z,923.55
2017-12-11T10:59:18.891Z,923.62
2017-12-11T11:00:18.876Z,923.54
2017-12-11T11:01:18.861Z,923.51
2017-12-11T11:02:18.847Z,923.52
2017-12-11T11:03:18.832Z,923.49
2017-12-11T11:04:18.823Z,923.5
2017-12-11T11:05:18.801Z,923.51
2017-12-11T11:06:18.787Z,923.44
2017-12-11T11:07:18.771Z,923.41
2017-12-11T11:08:18.757Z,923.38
2017-12-11T11:09:18.742Z,923.34
2017-12-11T11:10:18.729Z,923.39
2017-12-11T11:11:18.714Z,923.32
2017-12-11T11:12:18.699Z,923.36
2017-12-11T11:13:18.684Z,923.31
2017-12-11T11:14:18.670Z,923.19
2017-12-11T11:15:18.655Z,923.26
2017-12-11T11:16:18.640Z,923.22
2017-12-11T11:17:18.627Z,923.27
2017-12-11T11:18:18.610Z,923.33
2017-12-11T11:19:18.596Z,923.37
2017-12-11T11:20:18.582Z,923.36
2017-12-11T11:21:18.568Z,923.32
2017-12-11T11:22:18.552Z,923.27
2017-12-11T11:23:18.538Z,923.24
2017-12-11T11:24:18.525Z,923.25
2017-12-11T11:25:18.509Z,923.19
2017-12-11T11:26:18.496Z,923.19
2017-12-11T11:27:18.480Z,923.24
2017-12-11T11:28:18.464Z,923.23
2017-12-11T11:29:18.452Z,923.07
2017-12-11T11:30:18.438Z,923.17
2017-12-11T11:31:18.422Z,923.01
2017-12-11T11:32:18.407Z,923.06
2017-12-11T11:33:18.393Z,922.95
2017-12-11T11:34:18.379Z,922.94
2017-12-11T11:35:18.362Z,922.98
2017-12-11T11:36:18.350Z,922.93
2017-12-11T11:37:18.336Z,922.92
2017-12-11T11:38:18.321Z,922.86
2017-12-11T11:39:18.354Z,922.9
2017-12-11T11:40:18.291Z,922.9
2017-12-11T11:41:18.277Z,922.79
2017-12-11T11:42:18.264Z,922.76
2017-12-11T11:43:18.250Z,922.69
2017-12-11T11:44:18.235Z,922.79
2017-12-11T11:45:18.222Z,922.72
2017-12-11T11:46:18.206Z,922.84
2017-12-11T11:47:18.193Z,922.77
2017-12-11T11:48:18.176Z,922.75
2017-12-11T11:49:18.177Z,922.78
2017-12-11T11:50:18.149Z,922.74
2017-12-11T11:51:18.133Z,922.73
2017-12-11T11:52:18.119Z,922.65
2017-12-11T11:53:18.105Z,922.75
2017-12-11T11:54:18.091Z,922.79
2017-12-11T11:55:18.078Z,922.72
2017-12-11T11:56:18.063Z,922.68
2017-12-11T11:57:18.049Z,922.65
2017-12-11T11:58:18.033Z,922.68
2017-12-11T11:59:18.020Z,922.68
2017-12-11T12:00:18.008Z,922.63
2017-12-11T12:01:17.991Z,922.7
2017-12-11T12:02:17.976Z,922.73
2017-12-11T12:03:17.966Z,922.7
2017-12-11T12:04:17.951Z,922.7
2017-12-11T12:05:17.935Z,922.67
2017-12-11T12:06:17.921Z,922.68
2017-12-11T12:07:17.907Z,922.64
2017-12-11T12:08:17.894Z,922.62
2017-12-11T12:09:17.877Z,922.41
2017-12-11T12:10:17.865Z,922.5
2017-12-11T12:11:17.851Z,922.46
2017-12-11T12:12:17.835Z,922.45
2017-12-11T12:13:17.822Z,922.35
2017-12-11T12:14:17.809Z,922.37
2017-12-11T12:15:17.795Z,922.28
2017-12-11T12:16:17.779Z,922.32
2017-12-11T12:17:17.767Z,922.23
2017-12-11T12:18:17.756Z,922.26
2017-12-11T12:19:17.745Z,922.18
2017-12-11T12:20:17.725Z,922.14
2017-12-11T12:21:17.709Z,922.1
2017-12-11T12:22:17.701Z,922.11
2017-12-11T12:23:17.681Z,922.11
2017-12-11T12:24:17.678Z,922.07
2017-12-11T12:25:17.655Z,922.03
2017-12-11T12:26:17.641Z,922.01
2017-12-11T12:27:17.627Z,921.99
2017-12-11T12:28:17.612Z,921.96
2017-12-11T12:29:17.600Z,922.1
2017-12-11T12:30:17.586Z,922.07
2017-12-11T12:31:17.572Z,922.05